Time;durP1;ratioP1;P1;durP2;ratioP2;P2;SDS_P1;SDS_P2;PMS_P1;PMS_P2;Temp;Humidity;BMP_temperature;BMP_pressure;BME280_temperature;BME280_humidity;BME280_pressure;Samples;Min_cycle;Max_cycle;Signal;HPM_P1;HPM_P2
2023/06/25 00:02:58;;;;;;;6.68;5.47;;;;;;;22.33;73.25;102081.84;6123179;28;20239;-66
2023/06/25 00:06:21;;;;;;;8.43;7.15;;;;;;;22.18;73.30;102073.53;6127993;28;20230;-67
2023/06/25 00:09:52;;;;;;;7.07;5.53;;;;;;;22.18;73.48;102079.03;6128348;28;20239;-66
2023/06/25 00:13:13;;;;;;;6.90;6.00;;;;;;;22.20;73.62;102071.47;6129077;28;20238;-67
2023/06/25 00:16:34;;;;;;;7.10;6.05;;;;;;;22.16;74.01;102075.63;6131059;28;20235;-66
2023/06/25 00:19:57;;;;;;;12.50;7.05;;;;;;;22.15;74.24;102075.81;6125959;28;20237;-66
2023/06/25 00:23:18;;;;;;;7.78;6.97;;;;;;;22.06;74.49;102082.38;6145471;28;20281;-66
2023/06/25 00:26:45;;;;;;;7.15;6.45;;;;;;;21.98;74.45;102074.19;6131586;28;20243;-66
2023/06/25 00:30:07;;;;;;;7.95;6.35;;;;;;;21.93;74.63;102074.75;6123280;28;20227;-66
2023/06/25 00:33:28;;;;;;;7.90;6.38;;;;;;;21.93;74.93;102073.88;6131579;28;20247;-65
2023/06/25 00:36:52;;;;;;;7.72;6.85;;;;;;;21.96;74.79;102068.91;6134400;28;20234;-65
2023/06/25 00:40:13;;;;;;;6.47;5.88;;;;;;;21.87;75.26;102069.09;6112403;28;20675;-68
2023/06/25 00:43:33;;;;;;;8.18;6.65;;;;;;;21.85;75.32;102069.28;6138354;28;20235;-67
2023/06/25 00:46:54;;;;;;;10.07;6.72;;;;;;;21.78;75.72;102068.25;6129579;28;20616;-66
2023/06/25 00:50:15;;;;;;;9.77;7.55;;;;;;;21.81;75.82;102069.78;6111811;28;20231;-66
2023/06/25 00:53:38;;;;;;;8.15;6.82;;;;;;;21.76;76.16;102061.25;6139447;28;20526;-67
2023/06/25 00:57:03;;;;;;;8.07;7.28;;;;;;;21.76;76.04;102064.00;6112098;28;20527;-66
2023/06/25 01:00:24;;;;;;;8.95;8.05;;;;;;;21.66;76.23;102058.72;6116716;28;20250;-65
2023/06/25 01:03:54;;;;;;;8.77;7.47;;;;;;;21.74;76.39;102057.81;6113931;28;20239;-67
2023/06/25 01:07:19;;;;;;;7.88;6.95;;;;;;;21.73;76.32;102059.72;6120276;28;20230;-66
2023/06/25 01:10:41;;;;;;;7.30;6.38;;;;;;;21.80;76.39;102054.38;6137786;28;20321;-66
2023/06/25 01:14:03;;;;;;;11.52;8.05;;;;;;;21.68;76.76;102055.78;6130913;28;20616;-66
2023/06/25 01:17:24;;;;;;;9.38;7.63;;;;;;;21.72;76.69;102046.16;6109493;28;20318;-65
2023/06/25 01:20:45;;;;;;;11.57;8.70;;;;;;;21.72;76.73;102052.50;6127035;28;20238;-65
2023/06/25 01:24:08;;;;;;;11.63;8.90;;;;;;;21.68;76.73;102050.28;6126429;28;20330;-65
2023/06/25 01:27:29;;;;;;;10.00;7.85;;;;;;;21.68;76.82;102045.66;6106836;28;20254;-66
2023/06/25 01:30:51;;;;;;;12.52;8.65;;;;;;;21.53;77.45;102038.41;6130157;28;20238;-65
2023/06/25 01:34:13;;;;;;;12.82;8.85;;;;;;;21.39;77.55;102031.75;6126421;28;20592;-66
2023/06/25 01:37:34;;;;;;;13.05;8.38;;;;;;;21.33;78.00;102041.56;6116777;28;20239;-67
2023/06/25 01:40:56;;;;;;;14.85;9.02;;;;;;;21.38;78.19;102044.59;6124038;28;20246;-65
2023/06/25 01:44:20;;;;;;;9.05;7.78;;;;;;;21.29;78.24;102037.47;6125594;28;20243;-66
2023/06/25 01:47:41;;;;;;;10.48;8.77;;;;;;;21.24;78.94;102034.38;6128757;28;20231;-66
2023/06/25 01:51:02;;;;;;;9.80;8.80;;;;;;;21.22;78.95;102046.56;6116624;28;20238;-66
2023/06/25 01:54:23;;;;;;;13.10;8.90;;;;;;;21.22;79.14;102036.44;6119585;28;20231;-64
2023/06/25 01:57:45;;;;;;;11.57;9.50;;;;;;;21.24;79.20;102037.13;6118791;28;20335;-66
2023/06/25 02:01:06;;;;;;;11.73;10.15;;;;;;;21.13;79.31;102039.41;6105557;28;20243;-65
2023/06/25 02:04:30;;;;;;;10.00;9.00;;;;;;;21.12;79.56;102038.56;6122357;28;20621;-65
2023/06/25 02:07:51;;;;;;;8.77;7.88;;;;;;;20.94;79.63;102035.16;6115538;28;20247;-66
2023/06/25 02:11:12;;;;;;;11.10;8.80;;;;;;;20.89;80.30;102034.81;6123825;28;20242;-66
2023/06/25 02:14:35;;;;;;;11.63;9.52;;;;;;;20.86;80.65;102031.56;6133720;28;20243;-66
2023/06/25 02:17:56;;;;;;;8.93;7.78;;;;;;;20.92;80.92;102026.25;6113418;28;20259;-66
2023/06/25 02:21:17;;;;;;;10.15;8.30;;;;;;;21.05;81.13;102021.06;6131283;28;20231;-66
2023/06/25 02:24:38;;;;;;;10.00;8.30;;;;;;;21.08;80.73;102028.97;6120286;28;20862;-67
2023/06/25 02:27:59;;;;;;;12.25;8.90;;;;;;;21.08;80.68;102026.22;6105889;28;20244;-66
2023/06/25 02:31:21;;;;;;;10.07;7.82;;;;;;;20.97;80.87;102014.72;6113177;28;20227;-66
2023/06/25 02:34:43;;;;;;;13.43;8.57;;;;;;;21.07;80.96;102019.00;6121698;28;20239;-66
2023/06/25 02:38:06;;;;;;;9.18;8.32;;;;;;;21.05;80.88;102014.75;6112643;28;20562;-66
2023/06/25 02:41:27;;;;;;;9.73;8.50;;;;;;;20.89;80.99;102006.53;6134672;28;20250;-65
2023/06/25 02:44:47;;;;;;;11.80;9.70;;;;;;;20.89;81.42;102015.63;6134352;28;20331;-65
2023/06/25 02:48:10;;;;;;;11.65;8.95;;;;;;;20.87;81.42;102016.81;6126543;28;20251;-65
2023/06/25 02:51:30;;;;;;;10.45;9.35;;;;;;;20.86;81.59;102004.97;6125236;28;20231;-65
2023/06/25 02:54:51;;;;;;;10.80;8.48;;;;;;;20.74;81.80;102006.38;6129818;28;20247;-66
2023/06/25 02:58:12;;;;;;;12.38;10.88;;;;;;;20.62;81.97;102007.78;6148902;28;20725;-66
2023/06/25 03:01:33;;;;;;;10.60;9.60;;;;;;;20.64;82.23;102008.47;6132361;28;20239;-65
2023/06/25 03:04:55;;;;;;;10.80;9.50;;;;;;;20.62;82.38;102007.78;6135540;28;20235;-67
2023/06/25 03:08:16;;;;;;;10.60;9.50;;;;;;;20.64;82.45;102003.00;6140982;28;20247;-66
2023/06/25 03:11:37;;;;;;;15.00;13.38;;;;;;;20.60;82.89;102007.97;6112113;28;23918;-66
2023/06/25 03:14:58;;;;;;;14.05;12.57;;;;;;;20.56;82.78;102003.88;6112506;28;20259;-66
2023/06/25 03:18:20;;;;;;;15.57;11.25;;;;;;;20.56;83.13;101998.38;6133940;28;20565;-65
2023/06/25 03:21:42;;;;;;;13.32;11.13;;;;;;;20.55;83.01;102004.88;6103411;28;22557;-67
2023/06/25 03:25:04;;;;;;;9.10;8.30;;;;;;;20.54;83.43;102003.19;6131122;28;20231;-66
2023/06/25 03:28:26;;;;;;;11.20;9.45;;;;;;;20.50;83.44;102010.03;6126829;28;20234;-66
2023/06/25 03:31:48;;;;;;;12.57;10.02;;;;;;;20.49;83.65;102005.59;6119004;28;20228;-66
2023/06/25 03:35:12;;;;;;;10.90;9.32;;;;;;;20.62;83.31;102008.66;6131954;28;20231;-66
2023/06/25 03:38:37;;;;;;;11.68;9.55;;;;;;;20.80;82.98;101999.38;6131515;28;20428;-66
2023/06/25 03:41:58;;;;;;;12.63;9.73;;;;;;;20.73;82.71;101996.47;6128813;28;20250;-65
2023/06/25 03:45:20;;;;;;;14.15;10.38;;;;;;;20.70;82.93;101994.06;6114508;28;20236;-67
2023/06/25 03:48:42;;;;;;;11.30;9.38;;;;;;;20.74;82.85;101995.44;6129008;28;20232;-66
2023/06/25 03:52:02;;;;;;;12.02;9.73;;;;;;;20.64;82.78;101992.88;6129071;28;20668;-67
2023/06/25 03:55:25;;;;;;;10.82;9.65;;;;;;;20.60;82.86;101994.28;6117713;28;20555;-66
2023/06/25 03:58:46;;;;;;;11.63;10.32;;;;;;;20.74;82.98;101992.69;6129114;28;20262;-67
2023/06/25 04:02:08;;;;;;;10.57;9.40;;;;;;;20.86;82.86;101994.03;6129742;28;20238;-66
2023/06/25 04:05:29;;;;;;;9.57;8.68;;;;;;;20.97;82.61;102001.00;6117053;28;20227;-65
2023/06/25 04:08:50;;;;;;;14.70;11.05;;;;;;;21.08;82.38;101993.31;6117055;28;20330;-67
2023/06/25 04:12:13;;;;;;;10.32;9.32;;;;;;;21.08;82.46;102000.69;6128099;28;20222;-66
2023/06/25 04:15:35;;;;;;;11.23;9.32;;;;;;;21.15;82.22;101997.03;6109622;28;20560;-66
2023/06/25 04:18:56;;;;;;;14.80;10.05;;;;;;;21.10;82.03;102004.09;6119456;28;20328;-67
2023/06/25 04:22:17;;;;;;;11.25;10.05;;;;;;;21.16;81.73;102000.63;6113172;28;20246;-65
2023/06/25 04:25:38;;;;;;;11.25;9.95;;;;;;;21.13;81.78;102001.84;6115629;28;20235;-66
2023/06/25 04:29:01;;;;;;;12.05;10.82;;;;;;;21.24;81.94;102000.59;6142465;28;20238;-66
2023/06/25 04:32:22;;;;;;;11.00;8.68;;;;;;;21.37;81.71;102003.63;6117911;28;20226;-67
2023/06/25 04:35:43;;;;;;;14.13;11.70;;;;;;;21.39;81.16;102005.19;6121954;28;20343;-66
2023/06/25 04:39:05;;;;;;;15.52;10.23;;;;;;;21.47;80.53;101998.78;6122891;28;20240;-65
2023/06/25 04:42:27;;;;;;;17.13;11.38;;;;;;;21.40;80.44;101995.91;6105296;28;20236;-65
2023/06/25 04:45:49;;;;;;;15.18;12.95;;;;;;;21.38;80.21;101999.88;6108724;28;20242;-65
2023/06/25 04:49:11;;;;;;;10.93;9.70;;;;;;;21.41;80.45;101991.28;6128055;28;20800;-66
2023/06/25 04:52:32;;;;;;;15.13;12.18;;;;;;;21.41;80.64;101996.75;6123070;28;20235;-66
2023/06/25 04:55:53;;;;;;;12.32;11.00;;;;;;;21.53;80.51;101989.81;6122265;28;20243;-66
2023/06/25 04:59:14;;;;;;;12.27;10.27;;;;;;;21.62;79.93;101993.38;6135913;28;20510;-65
2023/06/25 05:02:36;;;;;;;21.10;18.85;;;;;;;21.64;79.56;101989.41;6122290;28;20235;-66
2023/06/25 05:05:57;;;;;;;14.45;12.95;;;;;;;21.81;79.16;102004.75;6105217;28;20540;-66
2023/06/25 05:09:18;;;;;;;13.52;10.77;;;;;;;21.93;78.74;101997.84;6134957;28;20231;-66
2023/06/25 05:12:40;;;;;;;13.30;11.32;;;;;;;22.02;77.99;101996.75;6116322;28;20303;-66
2023/06/25 05:16:01;;;;;;;11.00;9.48;;;;;;;22.13;77.73;101988.06;6122707;28;20238;-66
2023/06/25 05:19:23;;;;;;;11.90;10.20;;;;;;;22.26;77.45;101992.94;6122201;28;20624;-66
2023/06/25 05:22:44;;;;;;;13.13;9.75;;;;;;;22.16;76.80;101995.94;6128175;28;20598;-65
2023/06/25 05:26:05;;;;;;;8.80;7.90;;;;;;;22.18;75.85;101993.88;6114442;28;20331;-66
2023/06/25 05:29:26;;;;;;;8.63;7.70;;;;;;;22.34;75.04;101998.38;6130298;28;20761;-66
2023/06/25 05:32:46;;;;;;;7.45;6.75;;;;;;;22.86;73.93;101992.91;6123337;28;20231;-66
2023/06/25 05:36:09;;;;;;;7.05;6.38;;;;;;;23.09;72.08;101982.66;6112409;28;20242;-65
2023/06/25 05:39:29;;;;;;;7.30;6.25;;;;;;;23.05;71.39;101984.09;6117163;28;20243;-66
2023/06/25 05:42:50;;;;;;;7.38;5.85;;;;;;;23.09;71.51;101992.81;6127003;28;20358;-66
2023/06/25 05:46:13;;;;;;;6.97;6.28;;;;;;;23.16;71.12;101991.84;6118730;28;20517;-66
2023/06/25 05:49:34;;;;;;;6.93;5.63;;;;;;;23.09;70.07;101988.16;6134331;28;20235;-65
2023/06/25 05:52:56;;;;;;;7.10;5.65;;;;;;;23.05;70.12;101981.34;6112333;28;20322;-66
2023/06/25 05:56:17;;;;;;;7.00;6.40;;;;;;;23.10;70.14;101983.47;6118490;28;20263;-66
2023/06/25 05:59:38;;;;;;;5.22;4.82;;;;;;;23.55;68.85;101975.84;6132165;28;20227;-65
2023/06/25 06:02:58;;;;;;;8.25;6.50;;;;;;;23.36;68.64;101979.25;6124225;28;20243;-66
2023/06/25 06:06:19;;;;;;;6.10;5.55;;;;;;;23.38;67.87;101979.03;6123652;28;20242;-66
2023/06/25 06:09:42;;;;;;;12.52;10.55;;;;;;;23.53;67.92;101975.19;6140087;28;20239;-66
2023/06/25 06:13:03;;;;;;;5.22;4.72;;;;;;;23.69;67.38;101963.97;6104203;28;20231;-66
2023/06/25 06:16:23;;;;;;;7.30;6.63;;;;;;;24.05;65.99;101968.59;6130754;28;20230;-66
2023/06/25 06:19:44;;;;;;;6.15;5.55;;;;;;;24.18;65.68;101976.97;6138870;28;20327;-66
2023/06/25 06:23:05;;;;;;;6.00;5.07;;;;;;;24.05;65.48;101961.19;6117415;28;20231;-64
2023/06/25 06:26:27;;;;;;;6.35;4.97;;;;;;;23.74;65.25;101975.22;6116983;28;20231;-65
2023/06/25 06:29:48;;;;;;;8.48;4.82;;;;;;;23.65;64.81;101973.66;6135563;28;20322;-66
2023/06/25 06:33:09;;;;;;;4.55;4.15;;;;;;;23.70;65.84;101968.41;6126958;28;20319;-66
2023/06/25 06:36:30;;;;;;;5.10;4.60;;;;;;;23.38;65.47;101966.13;6122149;28;20582;-67
2023/06/25 06:39:51;;;;;;;4.15;3.75;;;;;;;23.39;65.28;101956.81;6133026;28;20222;-66
2023/06/25 06:43:13;;;;;;;4.82;4.22;;;;;;;23.55;65.74;101955.75;6134079;28;20231;-66
2023/06/25 06:46:34;;;;;;;4.00;3.70;;;;;;;23.93;65.79;101948.09;6124526;28;20230;-66
2023/06/25 06:49:54;;;;;;;4.55;4.25;;;;;;;23.90;64.78;101946.59;6111336;28;20613;-65
2023/06/25 06:53:15;;;;;;;5.57;4.82;;;;;;;24.27;64.47;101940.81;6127041;28;20235;-67
2023/06/25 06:56:37;;;;;;;5.28;4.57;;;;;;;24.05;62.84;101949.31;6121766;28;20242;-66
2023/06/25 06:59:59;;;;;;;5.43;4.20;;;;;;;24.05;63.47;101938.28;6122762;28;20232;-66
2023/06/25 07:03:20;;;;;;;3.67;2.67;;;;;;;24.41;63.79;101948.13;6129736;28;20234;-66
2023/06/25 07:06:41;;;;;;;5.63;4.65;;;;;;;24.92;62.29;101937.69;6108016;28;20226;-66
2023/06/25 07:10:02;;;;;;;4.60;4.20;;;;;;;24.95;61.00;101945.53;6125548;28;20239;-66
2023/06/25 07:13:22;;;;;;;3.25;2.95;;;;;;;25.03;61.10;101936.25;6137791;28;20325;-66
2023/06/25 07:16:45;;;;;;;3.70;3.40;;;;;;;25.12;60.89;101944.13;6125564;28;20235;-66
2023/06/25 07:20:08;;;;;;;5.55;4.28;;;;;;;25.02;60.72;101934.53;6119597;28;20231;-66
2023/06/25 07:23:29;;;;;;;3.85;3.55;;;;;;;25.24;60.59;101934.19;6129817;28;20228;-66
2023/06/25 07:26:50;;;;;;;4.72;4.00;;;;;;;24.92;60.24;101940.44;6125141;28;20375;-66
2023/06/25 07:30:12;;;;;;;3.80;3.50;;;;;;;24.94;60.49;101929.19;6117439;28;20310;-66
2023/06/25 07:33:34;;;;;;;4.28;3.97;;;;;;;25.19;60.38;101925.69;6132539;28;20238;-67
2023/06/25 07:36:55;;;;;;;4.13;3.80;;;;;;;25.03;60.80;101926.03;6120837;28;20262;-66
2023/06/25 07:40:16;;;;;;;4.32;3.92;;;;;;;25.24;60.08;101923.16;6118479;28;20227;-66
2023/06/25 07:43:37;;;;;;;7.50;4.65;;;;;;;24.68;59.52;101924.31;6095855;28;20240;-66
2023/06/25 07:46:58;;;;;;;4.28;3.22;;;;;;;24.79;58.78;101923.78;6124969;28;20345;-66
2023/06/25 07:50:20;;;;;;;4.18;3.78;;;;;;;24.78;59.23;101919.34;6123964;28;20242;-66
2023/06/25 07:53:42;;;;;;;5.25;4.00;;;;;;;24.76;59.73;101921.47;6124963;28;20228;-66
2023/06/25 07:57:03;;;;;;;3.53;3.22;;;;;;;24.99;59.73;101929.44;6135563;28;20242;-67
2023/06/25 08:00:24;;;;;;;5.13;4.22;;;;;;;25.58;58.66;101925.00;6126254;28;20669;-66
2023/06/25 08:03:45;;;;;;;5.90;4.63;;;;;;;24.83;59.68;101929.75;6098529;28;20263;-67
2023/06/25 08:07:07;;;;;;;7.18;3.95;;;;;;;24.94;60.03;101929.19;6114156;28;20229;-67
2023/06/25 08:10:28;;;;;;;4.88;4.20;;;;;;;25.40;59.37;101921.94;6088930;28;20556;-69
2023/06/25 08:13:49;;;;;;;5.85;4.45;;;;;;;25.77;58.73;101923.34;6134643;28;20243;-64
2023/06/25 08:17:10;;;;;;;8.68;5.38;;;;;;;25.74;58.58;101918.25;6106080;28;20236;-69
2023/06/25 08:20:30;;;;;;;11.30;6.75;;;;;;;26.79;59.40;101914.41;6104367;28;20238;-70
2023/06/25 08:23:53;;;;;;;15.10;5.93;;;;;;;26.29;58.06;101915.09;6137442;28;20236;-71
2023/06/25 08:27:14;;;;;;;26.75;24.83;;;;;;;26.01;59.37;101912.50;6131060;28;20238;-68
2023/06/25 08:30:35;;;;;;;22.05;20.15;;;;;;;26.46;58.85;101909.97;6115333;28;20228;-71
2023/06/25 08:33:56;;;;;;;5.22;4.72;;;;;;;26.70;58.73;101906.53;6115189;28;20231;-70
2023/06/25 08:37:16;;;;;;;5.18;4.65;;;;;;;26.61;58.10;101911.44;6139410;28;20238;-69
2023/06/25 08:40:41;;;;;;;6.22;4.90;;;;;;;26.32;58.19;101905.53;6129262;28;20373;-70
2023/06/25 08:44:02;;;;;;;6.18;4.93;;;;;;;26.24;58.64;101909.38;6125152;28;20232;-69
2023/06/25 08:47:26;;;;;;;5.57;5.03;;;;;;;26.46;58.22;101905.31;6137320;28;20233;-68
2023/06/25 08:50:54;;;;;;;6.63;5.45;;;;;;;25.71;59.42;101902.94;6115078;28;20247;-69
2023/06/25 08:54:15;;;;;;;6.35;5.75;;;;;;;25.97;59.54;101896.59;6124965;28;20239;-69
2023/06/25 08:57:38;;;;;;;6.32;5.82;;;;;;;26.32;59.16;101900.84;6138171;28;20632;-69
2023/06/25 09:00:58;;;;;;;6.10;5.60;;;;;;;26.55;57.92;101892.09;6110596;28;20239;-69
2023/06/25 09:04:19;;;;;;;5.88;5.28;;;;;;;27.04;57.49;101894.28;6135448;28;20255;-68
2023/06/25 09:07:44;;;;;;;9.05;5.50;;;;;;;26.11;58.10;101893.66;6130470;28;22560;-68
2023/06/25 09:11:05;;;;;;;6.53;5.90;;;;;;;26.07;58.29;101888.72;6117429;28;20594;-69
2023/06/25 09:14:28;;;;;;;6.03;5.13;;;;;;;26.90;57.75;101877.75;6133300;28;20676;-68
2023/06/25 09:17:49;;;;;;;5.15;4.65;;;;;;;27.43;57.00;101872.81;6122633;28;20785;-69
2023/06/25 09:21:11;;;;;;;5.47;4.90;;;;;;;26.82;56.98;101882.69;6109327;28;20250;-69
2023/06/25 09:24:31;;;;;;;5.13;4.65;;;;;;;26.93;56.28;101880.06;6124181;28;20227;-67
2023/06/25 09:27:52;;;;;;;5.65;5.15;;;;;;;27.07;56.53;101864.28;6091360;28;20246;-69
2023/06/25 09:31:17;;;;;;;4.55;4.15;;;;;;;27.31;54.63;101877.34;6122599;28;20243;-69
2023/06/25 09:34:41;;;;;;;5.88;5.35;;;;;;;27.36;54.05;101876.72;6122820;28;20223;-69
2023/06/25 09:38:02;;;;;;;5.38;4.85;;;;;;;27.72;54.28;101868.59;6096595;28;20273;-69
2023/06/25 09:41:24;;;;;;;5.75;5.05;;;;;;;26.83;54.76;101871.38;6124868;28;20238;-69
2023/06/25 09:44:50;;;;;;;5.82;5.28;;;;;;;27.62;53.71;101865.44;6130844;28;20310;-68
2023/06/25 09:48:13;;;;;;;5.07;4.57;;;;;;;28.00;52.16;101859.84;6133174;28;20672;-69
2023/06/25 09:51:54;;;;;;;5.75;5.30;;;;;;;27.91;52.98;101862.06;6113098;28;20325;-69
2023/06/25 09:55:17;;;;;;;5.80;5.30;;;;;;;28.30;51.95;101863.63;6116366;28;20235;-67
2023/06/25 09:58:38;;;;;;;5.93;5.30;;;;;;;29.13;50.79;101851.78;6125286;28;20226;-69
2023/06/25 10:01:59;;;;;;;6.60;5.93;;;;;;;29.49;49.91;101855.56;6109822;28;20239;-70
2023/06/25 10:05:22;;;;;;;4.45;4.10;;;;;;;29.46;49.85;101848.56;6117800;28;20326;-69
2023/06/25 10:08:43;;;;;;;5.63;5.10;;;;;;;29.46;50.78;101856.03;6116672;28;20239;-67
2023/06/25 10:12:05;;;;;;;6.25;5.28;;;;;;;28.60;50.58;101850.72;6119617;28;20239;-68
2023/06/25 10:15:32;;;;;;;6.00;5.53;;;;;;;28.72;50.93;101843.34;6119500;28;20316;-68
2023/06/25 10:18:56;;;;;;;6.10;5.60;;;;;;;27.40;53.02;101851.13;6127665;28;20255;-68
2023/06/25 10:22:22;;;;;;;7.45;5.55;;;;;;;27.39;53.63;101840.28;6110604;28;20302;-69
2023/06/25 10:25:53;;;;;;;6.03;5.43;;;;;;;27.94;53.16;101836.63;6108883;28;20224;-70
2023/06/25 10:29:14;;;;;;;5.78;5.18;;;;;;;28.34;52.54;101829.66;6138583;28;20235;-70
2023/06/25 10:32:41;;;;;;;5.93;5.40;;;;;;;28.70;51.09;101828.00;6131239;28;20510;-70
2023/06/25 10:36:02;;;;;;;7.63;5.70;;;;;;;29.23;50.34;101825.41;6127740;28;20238;-70
2023/06/25 10:39:36;;;;;;;6.10;5.57;;;;;;;29.01;50.33;101823.09;6130954;28;20243;-69
2023/06/25 10:42:57;;;;;;;5.68;5.05;;;;;;;29.39;50.12;101821.94;6084815;28;20666;-69
2023/06/25 10:46:18;;;;;;;5.55;5.05;;;;;;;29.41;50.46;101826.19;6108037;28;20238;-70
2023/06/25 10:49:39;;;;;;;6.43;5.80;;;;;;;29.04;49.99;101821.75;6103495;28;20251;-71
2023/06/25 10:53:00;;;;;;;6.38;5.88;;;;;;;28.68;49.30;101817.13;6104121;28;20240;-70
2023/06/25 10:56:23;;;;;;;5.90;5.38;;;;;;;28.36;50.79;101816.41;6114527;28;20620;-71
2023/06/25 10:59:44;;;;;;;6.18;5.68;;;;;;;28.73;49.99;101808.94;6123016;28;20251;-70
2023/06/25 11:03:05;;;;;;;6.70;5.78;;;;;;;28.58;50.23;101815.97;6123626;28;20232;-70
2023/06/25 11:06:26;;;;;;;5.35;4.95;;;;;;;28.71;50.59;101819.44;6092413;28;20243;-70
2023/06/25 11:09:55;;;;;;;7.00;6.40;;;;;;;28.80;49.82;101806.09;6129959;28;22856;-70
2023/06/25 11:13:17;;;;;;;5.90;5.28;;;;;;;28.73;50.29;101802.53;6128948;28;20230;-69
2023/06/25 11:16:45;;;;;;;6.25;5.75;;;;;;;29.06;50.52;101800.19;6128218;28;20254;-68
2023/06/25 11:20:07;;;;;;;6.82;6.25;;;;;;;29.31;49.47;101797.28;6133531;28;20234;-69
2023/06/25 11:23:28;;;;;;;5.72;5.25;;;;;;;29.77;48.66;101784.34;6118996;28;20262;-70
2023/06/25 11:26:57;;;;;;;6.38;5.78;;;;;;;30.10;47.36;101791.25;6113525;28;20246;-69
2023/06/25 11:30:19;;;;;;;6.45;5.85;;;;;;;29.92;47.56;101784.72;6123530;28;20234;-69
2023/06/25 11:33:40;;;;;;;5.20;4.68;;;;;;;30.57;47.92;101778.97;6125442;28;20580;-70
2023/06/25 11:37:10;;;;;;;4.93;4.53;;;;;;;31.52;46.59;101774.50;6109515;28;20243;-69
2023/06/25 11:40:33;;;;;;;5.63;5.07;;;;;;;31.20;45.37;101781.69;6110830;28;20230;-68
2023/06/25 11:43:54;;;;;;;6.05;4.88;;;;;;;29.86;46.57;101774.56;6133616;28;20228;-69
2023/06/25 11:47:16;;;;;;;4.13;3.83;;;;;;;30.71;46.06;101777.59;6136026;28;20292;-68
2023/06/25 11:50:37;;;;;;;8.27;4.20;;;;;;;31.09;45.27;101769.50;6107126;28;20224;-69
2023/06/25 11:53:58;;;;;;;4.70;3.80;;;;;;;31.28;44.37;101767.34;6141682;28;20223;-69
2023/06/25 11:57:19;;;;;;;4.93;4.53;;;;;;;29.78;46.22;101761.03;6113285;28;21191;-70
2023/06/25 12:00:40;;;;;;;5.07;4.68;;;;;;;30.74;46.39;101749.28;6119983;28;20254;-69
2023/06/25 12:04:03;;;;;;;4.50;4.10;;;;;;;31.72;46.27;101751.66;6127319;28;20235;-70
2023/06/25 12:07:24;;;;;;;6.45;4.03;;;;;;;30.90;46.03;101744.88;6114777;28;20633;-70
2023/06/25 12:10:45;;;;;;;5.22;4.72;;;;;;;30.96;46.12;101741.09;6096439;28;20703;-70
2023/06/25 12:14:06;;;;;;;4.68;4.28;;;;;;;31.18;44.91;101739.28;6123603;28;20232;-72
2023/06/25 12:17:26;;;;;;;4.90;4.40;;;;;;;31.52;44.44;101738.25;6135589;28;20293;-71
2023/06/25 12:20:49;;;;;;;4.63;3.67;;;;;;;31.95;44.75;101741.19;6106248;28;20251;-71
2023/06/25 12:24:13;;;;;;;4.45;4.05;;;;;;;32.01;44.65;101736.53;6129792;28;20240;-70
2023/06/25 12:27:34;;;;;;;4.30;3.88;;;;;;;31.56;44.74;101733.00;6136027;28;20226;-69
2023/06/25 12:30:55;;;;;;;5.13;4.63;;;;;;;31.38;45.33;101731.25;6114684;28;20250;-70
2023/06/25 12:34:16;;;;;;;4.28;3.88;;;;;;;31.27;44.58;101724.66;6133406;28;20228;-70
2023/06/25 12:37:38;;;;;;;4.63;4.15;;;;;;;31.32;45.61;101716.41;6128475;28;20230;-70
2023/06/25 12:40:59;;;;;;;4.35;3.95;;;;;;;31.03;44.77;101727.84;6101606;28;20243;-70
2023/06/25 12:44:20;;;;;;;3.90;3.53;;;;;;;31.37;44.64;101705.34;6118593;28;20551;-71
2023/06/25 12:47:41;;;;;;;4.95;4.55;;;;;;;31.70;44.50;101709.25;6101046;28;20269;-70
2023/06/25 12:51:01;;;;;;;4.78;4.38;;;;;;;30.41;45.71;101707.38;6106444;28;20238;-70
2023/06/25 12:54:23;;;;;;;4.38;4.07;;;;;;;31.37;46.03;101705.34;6118199;28;20231;-71
2023/06/25 12:57:44;;;;;;;4.53;3.97;;;;;;;31.68;46.03;101703.94;6118511;28;20791;-70
2023/06/25 13:01:05;;;;;;;3.85;3.55;;;;;;;32.40;43.98;101701.88;6101272;28;20238;-71
2023/06/25 13:04:26;;;;;;;4.50;4.10;;;;;;;32.43;43.10;101694.94;6123636;28;20231;-70
2023/06/25 13:07:47;;;;;;;4.15;3.55;;;;;;;33.11;42.29;101686.78;6129703;28;20802;-69
2023/06/25 13:11:09;;;;;;;4.82;3.50;;;;;;;31.24;44.44;101685.31;6120866;28;20668;-71
2023/06/25 13:14:30;;;;;;;4.45;4.07;;;;;;;30.76;44.95;101685.81;6122561;28;21728;-69
2023/06/25 13:17:51;;;;;;;4.55;3.95;;;;;;;31.93;43.63;101681.13;6106745;28;20599;-70
2023/06/25 13:21:12;;;;;;;3.80;2.88;;;;;;;32.67;43.19;101677.66;6121190;28;20234;-71
2023/06/25 13:24:33;;;;;;;4.28;3.83;;;;;;;32.53;42.76;101669.94;6138564;28;20239;-70
2023/06/25 13:27:55;;;;;;;4.63;4.10;;;;;;;33.69;41.48;101683.94;6147409;28;20659;-69
2023/06/25 13:31:16;;;;;;;3.90;3.58;;;;;;;31.95;42.72;101671.44;6122431;28;20242;-70
2023/06/25 13:34:37;;;;;;;4.22;3.92;;;;;;;32.22;43.09;101674.31;6119352;28;20252;-69
2023/06/25 13:37:58;;;;;;;4.20;3.80;;;;;;;35.56;39.52;101660.19;6108492;28;20609;-72
2023/06/25 13:41:19;;;;;;;3.75;3.45;;;;;;;34.66;41.24;101660.06;6113334;28;20360;-72
2023/06/25 13:44:42;;;;;;;3.92;3.63;;;;;;;36.80;37.38;101657.16;6122224;28;20238;-72
2023/06/25 13:48:02;;;;;;;4.15;3.55;;;;;;;36.20;37.74;101651.03;6099246;28;21060;-73
2023/06/25 13:51:23;;;;;;;4.80;4.40;;;;;;;35.18;38.67;101646.72;6096981;28;20223;-72
2023/06/25 13:54:44;;;;;;;4.82;4.43;;;;;;;35.05;38.78;101638.84;6109419;28;20236;-72
2023/06/25 13:58:05;;;;;;;5.78;4.25;;;;;;;33.38;40.48;101650.41;6122221;28;20514;-77
2023/06/25 14:01:29;;;;;;;4.20;3.83;;;;;;;33.57;40.59;101640.50;6100027;28;20324;-75
2023/06/25 14:04:51;;;;;;;3.75;3.45;;;;;;;32.62;42.53;101644.09;6119314;28;20242;-72
2023/06/25 14:08:13;;;;;;;5.20;4.45;;;;;;;32.32;42.17;101638.13;6121533;28;20606;-70
2023/06/25 14:11:34;;;;;;;5.20;4.25;;;;;;;31.82;43.45;101637.44;6094776;28;20321;-72
2023/06/25 14:14:55;;;;;;;6.53;3.85;;;;;;;32.93;42.47;101634.91;6117087;28;20744;-73
2023/06/25 14:18:17;;;;;;;4.97;4.57;;;;;;;33.75;42.53;101621.28;6104874;28;20291;-71
2023/06/25 14:21:39;;;;;;;5.47;4.97;;;;;;;33.25;41.16;101628.50;6113247;28;20238;-72
2023/06/25 14:24:59;;;;;;;4.40;4.00;;;;;;;32.97;42.21;101627.69;6122849;28;20700;-72
2023/06/25 14:28:20;;;;;;;4.75;4.35;;;;;;;32.97;41.89;101610.06;6110756;28;20236;-72
2023/06/25 14:31:41;;;;;;;5.35;4.93;;;;;;;32.77;42.12;101609.88;6119258;28;20231;-70
2023/06/25 14:35:04;;;;;;;4.60;4.20;;;;;;;32.61;42.07;101606.09;6122927;28;20317;-73
2023/06/25 14:38:24;;;;;;;5.20;4.80;;;;;;;31.92;43.60;101606.88;6140133;28;20235;-71
2023/06/25 14:41:45;;;;;;;5.03;4.50;;;;;;;32.45;42.05;101603.38;6121499;28;20569;-71
2023/06/25 14:45:07;;;;;;;4.40;4.10;;;;;;;33.37;41.44;101595.56;6128439;28;20231;-73
2023/06/25 14:48:28;;;;;;;5.05;4.55;;;;;;;33.18;41.27;101597.13;6114123;28;20247;-71
2023/06/25 14:51:51;;;;;;;4.95;3.88;;;;;;;32.03;42.64;101594.78;6128916;28;20243;-72
2023/06/25 14:55:13;;;;;;;4.13;3.70;;;;;;;31.68;43.46;101585.94;6127620;28;20239;-73
2023/06/25 14:58:34;;;;;;;4.88;4.43;;;;;;;32.39;42.88;101580.13;6128557;28;20318;-71
2023/06/25 15:01:58;;;;;;;5.13;4.00;;;;;;;31.86;43.29;101583.66;6126293;28;20503;-73
2023/06/25 15:05:19;;;;;;;4.75;4.35;;;;;;;32.86;42.10;101572.78;6126420;28;20236;-72
2023/06/25 15:08:42;;;;;;;4.50;4.10;;;;;;;33.33;42.23;101566.47;6132803;28;20223;-77
2023/06/25 15:12:04;;;;;;;4.22;3.92;;;;;;;33.00;42.58;101562.06;6133298;28;20235;-73
2023/06/25 15:15:25;;;;;;;4.45;4.15;;;;;;;32.32;43.77;101565.53;6127184;28;20314;-72
2023/06/25 15:18:46;;;;;;;5.18;4.68;;;;;;;31.67;43.28;101562.75;6139000;28;20234;-73
2023/06/25 15:22:07;;;;;;;4.15;3.75;;;;;;;32.58;44.29;101567.53;6129232;28;20565;-74
2023/06/25 15:25:29;;;;;;;4.20;3.80;;;;;;;33.43;42.14;101558.13;6122299;28;20310;-73
2023/06/25 15:28:50;;;;;;;5.95;5.35;;;;;;;33.21;41.65;101554.66;6129756;28;20250;-71
2023/06/25 15:32:12;;;;;;;5.03;4.53;;;;;;;31.60;44.11;101550.97;6129066;28;20230;-72
2023/06/25 15:35:33;;;;;;;4.75;4.40;;;;;;;31.88;43.87;101547.13;6102287;28;20250;-71